Time;durP1;ratioP1;P1;durP2;ratioP2;P2;SDS_P1;SDS_P2;PMS_P1;PMS_P2;Temp;Humidity;BMP_temperature;BMP_pressure;BME280_temperature;BME280_humidity;BME280_pressure;Samples;Min_cycle;Max_cycle;Signal;HPM_P1;HPM_P2
2022/02/14 00:02:03;;;;;;;;;7.25;7.25;;;;;11.55;64.46;99199.66;4922131;28;46089;-70
2022/02/14 00:04:28;;;;;;;;;7.25;4.75;;;;;11.51;64.65;99199.00;4921731;28;46326;-67
2022/02/14 00:06:54;;;;;;;;;4.50;4.50;;;;;11.48;65.24;99180.78;4923292;28;45294;-66
2022/02/14 00:09:20;;;;;;;;;8.00;7.00;;;;;11.47;65.12;99184.34;4923771;28;45416;-64
2022/02/14 00:11:46;;;;;;;;;9.25;6.25;;;;;11.48;64.80;99180.78;4923534;28;45374;-66
2022/02/14 00:14:11;;;;;;;;;6.25;6.00;;;;;11.47;65.01;99175.63;4923112;28;45386;-67
2022/02/14 00:16:36;;;;;;;;;6.50;5.25;;;;;11.44;64.80;99179.28;4922171;28;45319;-66
2022/02/14 00:19:02;;;;;;;;;9.00;5.25;;;;;11.42;64.63;99172.47;4923047;28;45573;-69
2022/02/14 00:21:28;;;;;;;;;9.75;6.25;;;;;11.42;65.46;99173.28;4920167;28;45430;-65
2022/02/14 00:23:53;;;;;;;;;8.75;7.25;;;;;11.43;64.82;99161.81;4920713;28;45433;-64
2022/02/14 00:26:18;;;;;;;;;6.75;6.00;;;;;11.39;65.30;99157.69;4919149;28;45282;-65
2022/02/14 00:28:44;;;;;;;;;12.75;6.50;;;;;11.40;65.26;99154.97;4920647;28;45333;-66
2022/02/14 00:31:09;;;;;;;;;7.00;6.00;;;;;11.42;65.37;99164.56;4920339;28;45645;-64
2022/02/14 00:33:36;;;;;;;;;6.50;6.00;;;;;11.39;65.92;99155.06;4921832;28;45295;-65
2022/02/14 00:36:01;;;;;;;;;6.75;4.75;;;;;11.40;65.55;99162.03;4924633;28;45279;-64
2022/02/14 00:38:27;;;;;;;;;8.50;5.50;;;;;11.39;65.58;99160.31;4921749;28;45549;-63
2022/02/14 00:40:52;;;;;;;;;6.75;6.00;;;;;11.36;65.54;99156.13;4922665;28;46295;-66
2022/02/14 00:43:18;;;;;;;;;6.00;6.00;;;;;11.36;65.65;99145.59;4920245;28;45355;-65
2022/02/14 00:45:44;;;;;;;;;7.25;6.25;;;;;11.36;65.79;99153.50;4920695;28;45342;-64
2022/02/14 00:48:11;;;;;;;;;14.00;7.00;;;;;11.21;65.92;99117.66;4920683;28;45622;-61
2022/02/14 00:50:37;;;;;;;;;5.75;5.75;;;;;11.28;65.98;99136.50;4925005;28;47023;-64
2022/02/14 00:53:04;;;;;;;;;8.25;6.00;;;;;11.28;66.33;99133.88;4920596;28;45401;-64
2022/02/14 00:55:30;;;;;;;;;8.00;5.00;;;;;11.31;66.70;99144.19;4920403;28;45414;-63
2022/02/14 00:57:56;;;;;;;;;8.25;8.00;;;;;11.25;66.46;99119.16;4920452;28;45224;-64
2022/02/14 01:00:22;;;;;;;;;6.75;6.75;;;;;11.27;66.38;99125.16;4920269;28;46403;-64
2022/02/14 01:02:47;;;;;;;;;8.50;7.00;;;;;11.31;66.34;99129.25;4921280;28;45244;-65
2022/02/14 01:05:13;;;;;;;;;7.50;6.00;;;;;11.22;66.90;99124.63;4921062;28;45316;-62
2022/02/14 01:07:39;;;;;;;;;6.75;6.50;;;;;11.28;66.39;99115.44;4920566;28;45242;-63
2022/02/14 01:10:06;;;;;;;;;9.75;6.25;;;;;11.30;66.42;99130.22;4920704;28;45312;-62
2022/02/14 01:12:33;;;;;;;;;4.00;4.00;;;;;11.29;66.41;99123.25;4924658;28;45339;-62
2022/02/14 01:14:58;;;;;;;;;6.00;6.00;;;;;11.28;66.29;99126.84;4929194;28;45471;-63
2022/02/14 01:17:23;;;;;;;;;7.25;6.50;;;;;11.30;66.39;99116.19;4918930;28;45637;-63
2022/02/14 01:19:49;;;;;;;;;8.25;7.00;;;;;11.30;66.89;99117.06;4919444;28;45345;-64
2022/02/14 01:22:15;;;;;;;;;7.75;7.75;;;;;11.29;66.42;99122.41;4918611;28;45520;-62
2022/02/14 01:24:41;;;;;;;;;6.00;4.25;;;;;11.29;66.35;99111.88;4920034;28;45291;-62
2022/02/14 01:27:06;;;;;;;;;5.75;5.75;;;;;11.33;65.97;99114.22;4922073;28;45235;-63
2022/02/14 01:29:33;;;;;;;;;6.00;5.50;;;;;11.36;66.27;99119.28;4920249;28;46011;-63
2022/02/14 01:31:59;;;;;;;;;7.50;6.25;;;;;11.40;65.85;99114.63;4920032;28;45812;-63
2022/02/14 01:34:24;;;;;;;;;9.75;5.00;;;;;11.44;65.90;99107.38;4919172;28;45324;-64
2022/02/14 01:36:49;;;;;;;;;8.75;5.00;;;;;11.48;66.20;99100.97;4922550;28;45410;-66
2022/02/14 01:39:15;;;;;;;;;7.50;6.50;;;;;11.53;66.12;99107.59;4919641;28;45369;-65
2022/02/14 01:41:40;;;;;;;;;6.75;4.50;;;;;11.52;65.72;99094.53;4920487;28;45477;-63
2022/02/14 01:44:38;;;;;;;;;5.00;5.00;;;;;11.32;65.50;99045.84;4920357;28;45364;-63
2022/02/14 01:47:05;;;;;;;;;5.25;4.25;;;;;11.62;65.21;99095.59;4920634;28;45323;-64
2022/02/14 01:49:31;;;;;;;;;5.00;5.00;;;;;11.63;65.42;99096.41;4920935;28;45169;-63
2022/02/14 01:51:56;;;;;;;;;5.00;5.00;;;;;11.63;65.25;99083.25;4922299;28;45328;-66
2022/02/14 01:54:22;;;;;;;;;3.75;3.50;;;;;11.65;65.62;99071.69;4921642;28;45201;-63
2022/02/14 01:56:48;;;;;;;;;7.50;5.50;;;;;11.64;65.64;99077.03;4919785;28;45252;-63
2022/02/14 01:59:13;;;;;;;;;5.25;4.75;;;;;11.65;65.52;99078.72;4919098;28;46377;-60
2022/02/14 02:01:39;;;;;;;;;6.00;5.25;;;;;11.63;65.47;99089.38;4920099;28;45203;-63
2022/02/14 02:04:05;;;;;;;;;6.00;4.25;;;;;11.61;65.54;99071.97;4919178;28;45297;-63
2022/02/14 02:06:31;;;;;;;;;0.00;0.00;;;;;11.59;65.62;99093.16;4920063;28;45362;-62
2022/02/14 02:08:57;;;;;;;;;5.50;5.00;;;;;11.60;65.94;99079.06;4920275;28;45430;-63
2022/02/14 02:14:06;;;;;;;;;8.00;6.00;;;;;11.65;65.81;99084.00;4921021;28;45457;-63
2022/02/14 02:16:31;;;;;;;;;8.25;6.00;;;;;11.67;66.22;99074.22;4921721;28;45433;-62
2022/02/14 02:18:57;;;;;;;;;6.00;5.00;;;;;11.61;66.03;99061.44;4919521;28;46285;-62
2022/02/14 02:21:22;;;;;;;;;6.00;5.50;;;;;11.68;66.30;99071.47;4923774;28;45418;-61
2022/02/14 02:23:48;;;;;;;;;7.25;6.00;;;;;11.69;66.31;99067.06;4919679;28;45395;-62
2022/02/14 02:26:13;;;;;;;;;6.50;5.25;;;;;11.67;66.19;99085.59;4919638;28;45433;-63
2022/02/14 02:28:39;;;;;;;;;7.50;4.25;;;;;11.72;66.55;99063.34;4920716;28;45399;-63
2022/02/14 02:31:05;;;;;;;;;4.50;4.00;;;;;11.71;66.71;99066.94;4922898;28;45390;-67
2022/02/14 02:33:32;;;;;;;;;5.75;5.25;;;;;11.74;67.01;99050.91;4923359;28;45457;-65
2022/02/14 02:35:58;;;;;;;;;5.50;4.00;;;;;11.71;67.10;99056.41;4904141;28;45246;-63
2022/02/14 02:38:24;;;;;;;;;4.25;4.25;;;;;11.73;67.26;99068.53;4921883;28;47066;-65
2022/02/14 02:40:50;;;;;;;;;2.75;2.00;;;;;11.75;66.99;99058.72;4927119;28;45236;-63
2022/02/14 02:43:17;;;;;;;;;6.75;5.50;;;;;11.76;67.59;99065.69;4920829;28;45445;-63
2022/02/14 02:45:45;;;;;;;;;4.00;3.00;;;;;11.79;66.92;99057.56;4918895;28;45608;-66
2022/02/14 02:48:10;;;;;;;;;6.00;4.75;;;;;11.80;67.33;99058.38;4918811;28;46435;-61
2022/02/14 02:51:01;;;;;;;;;5.25;5.25;;;;;11.79;67.88;99047.03;4918712;28;45225;-63
2022/02/14 02:53:22;;;;;;;;;4.00;4.00;;;;;11.77;67.54;99059.47;4918774;28;45297;-63
2022/02/14 02:55:47;;;;;;;;;4.75;4.00;;;;;11.80;68.12;99061.03;4918825;28;45612;-62
2022/02/14 02:58:13;;;;;;;;;7.00;6.00;;;;;11.79;67.82;99059.34;4918526;28;45224;-63
2022/02/14 03:00:38;;;;;;;;;3.00;3.00;;;;;11.80;68.32;99045.22;4918917;28;45233;-62
2022/02/14 03:03:04;;;;;;;;;8.25;6.25;;;;;11.81;67.95;99057.44;4919671;28;45251;-63
2022/02/14 03:05:29;;;;;;;;;3.25;3.25;;;;;11.67;68.41;99048.72;4919138;28;45232;-63
2022/02/14 03:07:54;;;;;;;;;3.75;2.25;;;;;11.77;68.72;99046.28;4921815;28;48590;-63
2022/02/14 03:10:20;;;;;;;;;6.50;4.50;;;;;11.77;68.44;99048.94;4918433;28;45375;-64
2022/02/14 03:12:45;;;;;;;;;4.50;4.00;;;;;11.76;68.69;99026.16;4918775;28;45398;-64
2022/02/14 03:15:11;;;;;;;;;5.50;5.00;;;;;11.74;68.69;99032.47;4919500;28;45611;-62
2022/02/14 03:17:36;;;;;;;;;6.75;5.25;;;;;11.77;68.81;99030.47;4917895;28;47967;-63
2022/02/14 03:20:01;;;;;;;;;5.75;4.75;;;;;11.77;69.57;99043.66;4918323;28;45399;-63
2022/02/14 03:22:27;;;;;;;;;4.00;4.00;;;;;11.71;69.29;99044.09;4918469;28;45369;-63
2022/02/14 03:24:53;;;;;;;;;4.75;3.00;;;;;11.73;70.13;99050.09;4920085;28;45332;-63
2022/02/14 03:27:18;;;;;;;;;5.00;4.75;;;;;11.72;70.20;99044.91;4917711;28;47120;-64
2022/02/14 03:29:43;;;;;;;;;5.50;5.00;;;;;11.67;70.81;99042.63;4920772;28;45396;-63
2022/02/14 03:32:09;;;;;;;;;3.00;2.00;;;;;11.65;70.97;99044.47;4926784;28;45706;-63
2022/02/14 03:34:34;;;;;;;;;8.50;6.00;;;;;11.62;71.04;99034.16;4919870;28;45421;-63
2022/02/14 03:36:59;;;;;;;;;8.75;4.25;;;;;11.59;71.87;99050.19;4917900;28;46331;-63
2022/02/14 03:39:25;;;;;;;;;3.75;3.75;;;;;11.54;71.33;99064.50;4917933;28;45235;-62
2022/02/14 03:41:50;;;;;;;;;8.25;6.00;;;;;11.54;72.08;99076.84;4918345;28;45375;-62
2022/02/14 03:44:16;;;;;;;;;6.00;5.00;;;;;11.50;73.36;99080.63;4918757;28;45323;-63
2022/02/14 03:46:41;;;;;;;;;6.00;4.50;;;;;11.45;73.96;99088.00;4918962;28;46145;-62
2022/02/14 03:49:07;;;;;;;;;9.25;5.25;;;;;11.38;73.78;99071.75;4919550;28;45419;-62
2022/02/14 03:51:33;;;;;;;;;6.25;4.50;;;;;11.31;74.61;99087.16;4920081;28;45487;-63
2022/02/14 03:53:59;;;;;;;;;3.75;3.00;;;;;11.26;74.23;99094.50;4921544;28;45252;-63
2022/02/14 03:56:24;;;;;;;;;3.00;3.00;;;;;11.22;74.16;99091.22;4921469;28;47033;-63
2022/02/14 03:58:50;;;;;;;;;5.00;4.00;;;;;11.19;74.27;99096.69;4922581;28;45433;-63
2022/02/14 04:01:15;;;;;;;;;7.75;4.00;;;;;11.17;74.63;99098.59;4921388;28;45418;-63
2022/02/14 04:03:40;;;;;;;;;2.75;2.50;;;;;11.16;74.37;99102.16;4921785;28;45376;-62
2022/02/14 04:06:06;;;;;;;;;4.75;1.75;;;;;11.11;74.39;99101.63;4922474;28;46270;-63
2022/02/14 04:08:31;;;;;;;;;5.25;4.00;;;;;11.11;75.01;99138.47;4922251;28;45510;-62
2022/02/14 04:10:58;;;;;;;;;3.00;2.00;;;;;11.05;74.54;99152.03;4925328;28;45266;-62
2022/02/14 04:13:24;;;;;;;;;1.00;0.50;;;;;10.90;73.26;99175.75;4925096;28;45239;-63
2022/02/14 04:15:49;;;;;;;;;0.00;0.00;;;;;10.67;72.68;99164.06;4923739;28;45441;-62
2022/02/14 04:18:15;;;;;;;;;0.25;0.00;;;;;10.57;72.95;99178.75;4924239;28;45358;-63
2022/02/14 04:20:40;;;;;;;;;0.00;0.00;;;;;10.42;72.47;99181.38;4922805;28;45209;-63
2022/02/14 04:23:05;;;;;;;;;2.50;0.00;;;;;10.29;72.67;99181.25;4921008;28;45356;-63
2022/02/14 04:25:31;;;;;;;;;0.25;0.00;;;;;10.21;71.75;99194.03;4920876;28;45251;-65
2022/02/14 04:27:56;;;;;;;;;0.00;0.00;;;;;10.09;71.82;99195.63;4921275;28;45277;-63
2022/02/14 04:30:24;;;;;;;;;0.00;0.00;;;;;9.99;71.65;99200.56;4921007;28;45347;-62
2022/02/14 04:32:50;;;;;;;;;0.00;0.00;;;;;9.89;71.92;99202.91;4921185;28;45319;-64
2022/02/14 04:35:16;;;;;;;;;0.00;0.00;;;;;9.62;72.11;99176.50;4921380;28;45336;-63
2022/02/14 04:37:41;;;;;;;;;0.00;0.00;;;;;9.77;72.22;99212.38;4921049;28;45371;-62
2022/02/14 04:40:07;;;;;;;;;0.00;0.00;;;;;9.70;72.41;99215.44;4922366;28;45349;-62
2022/02/14 04:42:33;;;;;;;;;0.00;0.00;;;;;9.50;72.71;99199.88;4922558;28;45401;-63
2022/02/14 04:44:59;;;;;;;;;0.00;0.00;;;;;9.62;72.77;99242.16;4920536;28;47229;-63
2022/02/14 04:47:24;;;;;;;;;0.00;0.00;;;;;9.57;72.43;99237.16;4920521;28;45410;-63
2022/02/14 04:49:49;;;;;;;;;0.00;0.00;;;;;9.47;72.71;99230.75;4921100;28;45357;-61
2022/02/14 04:52:15;;;;;;;;;0.00;0.00;;;;;9.50;72.08;99239.25;4921122;28;45485;-63
2022/02/14 04:54:41;;;;;;;;;0.00;0.00;;;;;9.48;72.20;99243.75;4919578;28;46746;-62
2022/02/14 04:57:06;;;;;;;;;0.00;0.00;;;;;9.48;72.25;99249.00;4922021;28;45192;-63
2022/02/14 04:59:32;;;;;;;;;0.50;0.00;;;;;9.47;72.17;99252.56;4922600;28;45430;-62
2022/02/14 05:01:58;;;;;;;;;0.00;0.00;;;;;9.13;71.85;99207.25;4925346;28;45469;-63
2022/02/14 05:04:25;;;;;;;;;1.00;0.00;;;;;9.41;71.95;99252.91;4924527;28;45621;-62
2022/02/14 05:06:50;;;;;;;;;0.00;0.00;;;;;9.36;72.16;99257.56;4921141;28;45405;-62
2022/02/14 05:09:16;;;;;;;;;0.00;0.00;;;;;9.29;72.45;99269.34;4920896;28;45342;-62
2022/02/14 05:11:41;;;;;;;;;0.00;0.00;;;;;9.18;72.17;99268.19;4921843;28;45565;-62
2022/02/14 05:14:06;;;;;;;;;0.00;0.00;;;;;9.15;72.75;99280.63;4925394;28;46057;-65
2022/02/14 05:16:32;;;;;;;;;0.00;0.00;;;;;9.11;73.06;99277.31;4924337;28;45318;-63
2022/02/14 05:18:57;;;;;;;;;0.00;0.00;;;;;9.05;73.32;99282.91;4920703;28;45359;-62
2022/02/14 05:21:22;;;;;;;;;0.00;0.00;;;;;9.01;73.13;99286.63;4919829;28;45582;-63
2022/02/14 05:23:47;;;;;;;;;0.00;0.00;;;;;8.97;73.02;99285.09;4922830;28;45358;-64
2022/02/14 05:26:13;;;;;;;;;0.00;0.00;;;;;8.94;73.79;99306.25;4922301;28;45433;-62
2022/02/14 05:28:39;;;;;;;;;1.00;0.00;;;;;8.88;74.00;99300.41;4923391;28;45695;-62
2022/02/14 05:31:05;;;;;;;;;0.00;0.00;;;;;8.83;74.09;99305.06;4920685;28;45418;-63
2022/02/14 05:33:30;;;;;;;;;0.75;0.00;;;;;8.80;74.43;99306.97;4919907;28;46054;-62
2022/02/14 05:35:55;;;;;;;;;1.00;0.00;;;;;8.75;74.52;99318.56;4921921;28;45399;-64
2022/02/14 05:38:21;;;;;;;;;0.25;0.00;;;;;8.72;74.94;99328.38;4928311;28;45244;-63
2022/02/14 05:40:46;;;;;;;;;0.25;0.00;;;;;8.66;74.81;99333.94;4924905;28;45453;-63
2022/02/14 05:43:13;;;;;;;;;1.00;0.00;;;;;8.65;75.16;99342.72;4919644;28;45327;-63
2022/02/14 05:45:39;;;;;;;;;0.00;0.00;;;;;8.64;75.46;99348.91;4922340;28;45223;-63
2022/02/14 05:48:04;;;;;;;;;0.00;0.00;;;;;8.60;75.51;99341.19;4922285;28;45267;-62
2022/02/14 05:50:30;;;;;;;;;0.00;0.00;;;;;8.58;75.29;99352.66;4922027;28;45243;-63
2022/02/14 05:52:55;;;;;;;;;0.75;0.00;;;;;8.55;75.82;99343.22;4920417;28;47794;-64
2022/02/14 05:55:21;;;;;;;;;0.00;0.00;;;;;8.63;75.76;99363.75;4922345;28;45319;-63
2022/02/14 05:57:46;;;;;;;;;0.00;0.00;;;;;8.60;75.23;99367.41;4920638;28;45404;-63
2022/02/14 06:00:12;;;;;;;;;0.00;0.00;;;;;8.57;75.43;99364.09;4919471;28;45801;-62
2022/02/14 06:02:38;;;;;;;;;2.75;0.00;;;;;8.55;75.13;99377.28;4919781;28;45453;-63
2022/02/14 06:05:07;;;;;;;;;0.00;0.00;;;;;8.51;75.57;99372.25;4920356;28;45343;-63
2022/02/14 06:07:32;;;;;;;;;1.00;0.00;;;;;8.45;75.08;99373.38;4924699;28;45252;-63
2022/02/14 06:09:59;;;;;;;;;1.50;0.50;;;;;8.42;75.76;99378.78;4921713;28;45489;-66
2022/02/14 06:12:24;;;;;;;;;0.50;0.00;;;;;8.42;75.78;99390.13;4922996;28;46047;-63
2022/02/14 06:14:49;;;;;;;;;1.75;0.00;;;;;8.40;76.26;99396.34;4920111;28;45220;-63
2022/02/14 06:17:15;;;;;;;;;0.00;0.00;;;;;8.37;76.18;99397.38;4919656;28;45207;-63
2022/02/14 06:19:40;;;;;;;;;0.00;0.00;;;;;8.34;76.22;99397.53;4919041;28;45380;-63
2022/02/14 06:22:05;;;;;;;;;0.00;0.00;;;;;8.31;76.37;99411.59;4919261;28;45334;-62
2022/02/14 06:24:31;;;;;;;;;0.00;0.00;;;;;8.30;76.42;99422.19;4919140;28;45309;-63
2022/02/14 06:26:56;;;;;;;;;0.00;0.00;;;;;8.27;76.61;99425.78;4919145;28;45447;-63
2022/02/14 06:29:21;;;;;;;;;2.00;0.00;;;;;8.27;76.82;99435.44;4919903;28;45314;-63
2022/02/14 06:31:47;;;;;;;;;1.25;0.00;;;;;8.22;75.78;99432.19;4917744;28;46959;-63
2022/02/14 06:34:13;;;;;;;;;1.00;1.00;;;;;8.23;76.17;99434.72;4919856;28;45353;-62
2022/02/14 06:36:38;;;;;;;;;1.00;0.00;;;;;8.21;76.53;99438.34;4920295;28;45814;-63
2022/02/14 06:39:03;;;;;;;;;1.00;0.00;;;;;8.18;76.01;99445.44;4919461;28;45330;-62
2022/02/14 06:41:29;;;;;;;;;0.00;0.00;;;;;8.16;76.36;99449.03;4919101;28;45937;-62
2022/02/14 06:43:56;;;;;;;;;0.00;0.00;;;;;8.14;76.93;99440.41;4919345;28;45375;-63
2022/02/14 06:46:22;;;;;;;;;1.25;0.50;;;;;8.11;76.64;99437.94;4919293;28;45335;-62
2022/02/14 06:48:48;;;;;;;;;6.25;1.00;;;;;8.10;76.99;99436.25;4919183;28;45290;-63
2022/02/14 06:51:14;;;;;;;;;0.00;0.00;;;;;8.08;76.96;99438.09;4919072;28;45409;-63
2022/02/14 06:53:39;;;;;;;;;1.00;1.00;;;;;8.06;76.19;99450.41;4920437;28;45342;-63
2022/02/14 06:56:06;;;;;;;;;1.00;1.00;;;;;8.06;76.93;99439.94;4920335;28;45355;-64
2022/02/14 06:58:36;;;;;;;;;2.50;1.00;;;;;8.04;76.94;99447.88;4920520;28;45347;-63
2022/02/14 07:01:03;;;;;;;;;0.50;0.50;;;;;8.02;76.38;99447.94;4920594;28;45232;-64
2022/02/14 07:03:29;;;;;;;;;1.00;1.00;;;;;8.03;76.63;99452.25;4919399;28;45377;-63
2022/02/14 07:05:55;;;;;;;;;2.25;0.25;;;;;8.01;76.52;99453.25;4920459;28;45594;-63
2022/02/14 07:08:20;;;;;;;;;1.75;0.75;;;;;8.03;76.75;99467.97;4922747;28;44865;-63
2022/02/14 07:10:45;;;;;;;;;1.50;1.00;;;;;8.02;76.36;99466.25;4919057;28;46139;-63
2022/02/14 07:13:11;;;;;;;;;2.50;2.50;;;;;8.01;76.46;99471.59;4918845;28;45303;-64
2022/02/14 07:15:36;;;;;;;;;2.00;2.00;;;;;8.02;77.01;99481.16;4919595;28;45339;-63
2022/02/14 07:18:03;;;;;;;;;2.00;1.00;;;;;8.02;76.50;99475.91;4919262;28;45325;-64
2022/02/14 07:20:29;;;;;;;;;3.75;2.00;;;;;8.01;76.59;99480.28;4919689;28;46213;-63
2022/02/14 07:22:54;;;;;;;;;1.00;1.00;;;;;7.94;76.71;99484.09;4920215;28;45358;-63
2022/02/14 07:25:20;;;;;;;;;2.00;1.75;;;;;8.02;76.72;99491.63;4918852;28;45305;-62
2022/02/14 07:27:45;;;;;;;;;3.00;1.00;;;;;8.03;77.00;99491.53;4918517;28;45236;-63
2022/02/14 07:30:12;;;;;;;;;2.00;1.00;;;;;8.03;76.22;99490.69;4918131;28;45695;-62
2022/02/14 07:32:39;;;;;;;;;1.50;1.25;;;;;8.04;75.62;99500.25;4919524;28;45306;-62
2022/02/14 07:35:05;;;;;;;;;3.00;1.00;;;;;8.09;75.34;99513.97;4921303;28;45302;-62
2022/02/14 07:37:31;;;;;;;;;3.25;3.00;;;;;8.04;75.57;99506.31;4921378;28;45516;-64
2022/02/14 07:39:56;;;;;;;;;3.00;3.00;;;;;8.10;75.64;99514.81;4921351;28;46209;-62
2022/02/14 07:42:22;;;;;;;;;1.25;1.25;;;;;8.10;74.82;99517.44;4921356;28;45384;-63
2022/02/14 07:44:47;;;;;;;;;4.00;2.00;;;;;8.09;75.39;99513.13;4922605;28;45398;-63
2022/02/14 07:47:13;;;;;;;;;5.75;1.00;;;;;8.08;75.81;99507.03;4923144;28;45319;-63
2022/02/14 07:49:39;;;;;;;;;4.00;2.00;;;;;8.09;75.98;99523.59;4920654;28;46273;-64
2022/02/14 07:52:04;;;;;;;;;1.25;1.00;;;;;8.10;75.57;99526.16;4919691;28;45520;-65
2022/02/14 07:54:30;;;;;;;;;1.50;1.50;;;;;8.12;75.35;99524.31;4921300;28;45454;-66
2022/02/14 07:56:55;;;;;;;;;3.50;1.25;;;;;8.13;75.06;99522.53;4922256;28;45227;-64
2022/02/14 07:59:21;;;;;;;;;4.50;3.00;;;;;8.02;74.99;99508.16;4922577;28;45248;-65
2022/02/14 08:01:46;;;;;;;;;6.00;2.00;;;;;8.16;74.64;99532.84;4923943;28;44755;-64
2022/02/14 08:04:12;;;;;;;;;1.00;1.00;;;;;8.18;75.09;99544.13;4923145;28;45495;-64
2022/02/14 08:06:37;;;;;;;;;7.50;2.75;;;;;8.16;74.75;99538.09;4921474;28;45263;-68
2022/02/14 08:09:04;;;;;;;;;2.00;2.00;;;;;8.18;74.61;99562.44;4921453;28;46188;-66
2022/02/14 08:11:30;;;;;;;;;5.00;3.00;;;;;8.14;74.26;99551.28;4920882;28;45343;-68
2022/02/14 08:13:56;;;;;;;;;4.50;4.50;;;;;8.17;74.40;99547.66;4923611;28;45462;-66
2022/02/14 08:16:21;;;;;;;;;4.00;2.00;;;;;8.16;74.14;99548.56;4924388;28;45289;-65
2022/02/14 08:18:47;;;;;;;;;1.00;1.00;;;;;8.17;73.68;99552.91;4923606;28;46056;-64
2022/02/14 08:21:12;;;;;;;;;3.00;1.75;;;;;8.11;73.64;99542.69;4923286;28;45327;-69
2022/02/14 08:23:37;;;;;;;;;3.50;2.00;;;;;8.16;73.47;99557.31;4920685;28;45314;-67
2022/02/14 08:26:03;;;;;;;;;4.00;2.00;;;;;8.18;73.74;99578.16;4921524;28;45312;-68
2022/02/14 08:28:28;;;;;;;;;2.00;2.00;;;;;8.19;73.05;99572.88;4921454;28;46420;-67
2022/02/14 08:30:53;;;;;;;;;5.25;2.00;;;;;8.20;73.38;99571.09;4922568;28;45403;-70
2022/02/14 08:33:19;;;;;;;;;2.00;2.00;;;;;7.98;73.45;99532.81;4923893;28;45331;-66
2022/02/14 08:35:44;;;;;;;;;4.25;2.00;;;;;8.25;73.00;99566.47;4922263;28;45358;-67
2022/02/14 08:38:10;;;;;;;;;2.50;2.00;;;;;8.33;73.28;99585.31;4919407;28;47106;-67
2022/02/14 08:40:37;;;;;;;;;2.75;2.00;;;;;8.36;73.41;99583.47;4920455;28;45244;-66
2022/02/14 08:43:03;;;;;;;;;5.50;3.00;;;;;8.42;73.38;99588.41;4919998;28;45237;-68
2022/02/14 08:45:31;;;;;;;;;5.75;3.00;;;;;8.47;73.01;99589.91;4920910;28;45240;-67
2022/02/14 08:47:56;;;;;;;;;9.75;4.25;;;;;8.52;72.85;99604.59;4920589;28;46204;-69
2022/02/14 08:50:22;;;;;;;;;23.75;15.00;;;;;8.48;72.76;99572.41;4920479;28;45267;-67
2022/02/14 08:52:47;;;;;;;;;12.00;5.25;;;;;8.59;72.88;99590.28;4920477;28;45431;-67
2022/02/14 08:55:14;;;;;;;;;8.50;2.00;;;;;8.66;73.35;99596.09;4920296;28;45653;-68
2022/02/14 08:57:41;;;;;;;;;6.00;4.25;;;;;8.55;73.45;99562.53;4921972;28;45541;-68
2022/02/14 09:00:08;;;;;;;;;2.75;2.00;;;;;8.81;73.32;99586.63;4920454;28;45342;-69
2022/02/14 09:02:33;;;;;;;;;3.00;2.00;;;;;8.89;72.99;99593.19;4921988;28;45251;-68
2022/02/14 09:04:59;;;;;;;;;4.00;1.00;;;;;8.95;72.69;99592.03;4920382;28;45483;-68
2022/02/14 09:07:24;;;;;;;;;5.00;3.00;;;;;9.03;72.47;99594.28;4920026;28;45229;-68
2022/02/14 09:09:50;;;;;;;;;5.25;3.25;;;;;9.11;72.53;99602.63;4919986;28;45343;-68
2022/02/14 09:12:15;;;;;;;;;5.00;3.00;;;;;9.23;72.16;99595.94;4919041;28;45392;-69
2022/02/14 09:14:41;;;;;;;;;6.75;2.75;;;;;9.33;71.76;99606.78;4920328;28;45529;-68
2022/02/14 09:17:06;;;;;;;;;6.50;4.00;;;;;9.41;71.50;99604.63;4918936;28;45418;-70
2022/02/14 09:19:32;;;;;;;;;4.25;3.00;;;;;9.47;71.13;99609.56;4922046;28;45396;-67
2022/02/14 09:21:57;;;;;;;;;5.00;4.00;;;;;9.52;70.44;99605.84;4920484;28;45822;-69
2022/02/14 09:24:23;;;;;;;;;2.25;2.00;;;;;9.57;70.38;99601.22;4920017;28;45448;-69
2022/02/14 09:26:48;;;;;;;;;3.75;2.00;;;;;9.63;70.27;99598.28;4920388;28;45370;-68
2022/02/14 09:29:15;;;;;;;;;2.75;2.75;;;;;9.78;70.14;99602.72;4920321;28;45440;-69
2022/02/14 09:31:41;;;;;;;;;8.25;4.00;;;;;9.86;69.51;99607.56;4922187;28;45356;-67
2022/02/14 09:34:07;;;;;;;;;7.25;3.00;;;;;9.92;68.49;99616.91;4921029;28;45541;-66
2022/02/14 09:36:34;;;;;;;;;5.25;2.50;;;;;9.93;68.19;99616.81;4922747;28;45243;-68
2022/02/14 09:39:00;;;;;;;;;3.00;3.00;;;;;9.91;68.34;99607.34;4921335;28;45196;-66
2022/02/14 09:41:26;;;;;;;;;3.00;3.00;;;;;9.90;68.68;99605.63;4919432;28;45409;-66
2022/02/14 09:43:52;;;;;;;;;3.75;2.25;;;;;9.89;68.27;99617.91;4920515;28;45343;-66
2022/02/14 09:46:18;;;;;;;;;5.50;3.25;;;;;9.93;68.61;99618.59;4920492;28;45518;-67
2022/02/14 09:48:43;;;;;;;;;8.00;4.50;;;;;9.83;68.26;99601.66;4919633;28;45392;-69
2022/02/14 09:51:11;;;;;;;;;6.75;3.75;;;;;9.96;67.54;99614.97;4920358;28;45390;-67
2022/02/14 09:53:36;;;;;;;;;3.75;2.25;;;;;9.77;67.37;99595.78;4921136;28;45544;-67
2022/02/14 09:56:02;;;;;;;;;6.25;4.00;;;;;9.93;67.43;99626.50;4920493;28;45522;-67
2022/02/14 09:58:28;;;;;;;;;3.00;3.00;;;;;9.97;67.74;99646.41;4919991;28;45223;-67
2022/02/14 10:00:54;;;;;;;;;4.25;2.75;;;;;9.97;67.72;99643.78;4921077;28;45239;-67
2022/02/14 10:03:24;;;;;;;;;4.50;3.00;;;;;10.00;67.32;99638.38;4923162;28;45218;-68
2022/02/14 10:05:53;;;;;;;;;7.00;4.25;;;;;10.00;67.17;99637.50;4921572;28;47486;-67
2022/02/14 10:08:24;;;;;;;;;5.00;4.25;;;;;9.98;67.58;99642.00;4919325;28;45351;-67
2022/02/14 10:10:51;;;;;;;;;6.00;3.50;;;;;9.92;67.34;99644.00;4919367;28;45754;-66
2022/02/14 10:13:32;;;;;;;;;18.00;13.25;;;;;9.88;66.45;99645.09;4918043;28;45481;-67
2022/02/14 10:15:59;;;;;;;;;15.25;10.50;;;;;9.91;66.24;99646.75;4918782;28;46517;-66
2022/02/14 10:18:29;;;;;;;;;30.00;25.25;;;;;9.97;66.69;99659.56;4919724;28;45356;-67
2022/02/14 10:21:17;;;;;;;;;8.00;4.25;;;;;10.05;65.92;99654.75;4919983;28;45253;-67
2022/02/14 10:24:22;;;;;;;;;3.25;1.75;;;;;10.12;65.71;99665.78;4919771;28;45437;-68
2022/02/14 10:26:50;;;;;;;;;3.50;3.25;;;;;10.23;65.29;99654.69;4917551;28;45893;-67
2022/02/14 10:29:20;;;;;;;;;4.50;1.75;;;;;10.31;65.18;99652.50;4920041;28;45396;-69
2022/02/14 10:31:50;;;;;;;;;2.75;2.75;;;;;10.45;64.84;99664.06;4920497;28;45265;-67
2022/02/14 10:34:17;;;;;;;;;10.00;5.75;;;;;10.56;64.33;99676.66;4920620;28;45252;-69
2022/02/14 10:36:46;;;;;;;;;7.50;3.50;;;;;10.67;63.98;99676.91;4918772;28;47296;-68
2022/02/14 10:39:18;;;;;;;;;4.50;4.50;;;;;10.68;63.05;99651.47;4919250;28;45311;-68
2022/02/14 10:41:54;;;;;;;;;3.50;3.25;;;;;10.74;63.35;99672.16;4919294;28;45353;-67
2022/02/14 10:47:12;;;;;;;;;3.25;3.00;;;;;10.85;63.86;99675.03;4918416;28;45446;-66
2022/02/14 10:49:38;;;;;;;;;5.50;3.25;;;;;10.98;63.18;99685.72;4919733;28;45490;-67
2022/02/14 10:52:10;;;;;;;;;7.00;3.75;;;;;11.05;63.67;99680.97;4921152;28;45331;-69
2022/02/14 10:54:38;;;;;;;;;7.00;4.00;;;;;11.14;62.98;99677.81;4919177;28;45474;-67
2022/02/14 10:57:04;;;;;;;;;10.25;4.50;;;;;11.22;63.04;99674.75;4918338;28;46283;-68
2022/02/14 10:59:29;;;;;;;;;5.50;3.50;;;;;11.34;62.43;99681.06;4918325;28;45234;-67
2022/02/14 11:01:55;;;;;;;;;2.25;2.00;;;;;11.43;61.22;99667.38;4918469;28;45407;-68
2022/02/14 11:04:20;;;;;;;;;3.00;3.00;;;;;11.27;61.18;99634.97;4918453;28;45689;-68
2022/02/14 11:06:46;;;;;;;;;5.00;3.00;;;;;11.45;61.05;99657.59;4919473;28;45567;-68
2022/02/14 11:09:12;;;;;;;;;6.00;3.00;;;;;11.52;60.07;99669.47;4922832;28;45386;-69
2022/02/14 11:11:39;;;;;;;;;4.75;1.50;;;;;11.48;59.63;99677.66;4922945;28;45366;-67
2022/02/14 11:14:05;;;;;;;;;17.50;15.50;;;;;11.46;59.61;99669.81;4923279;28;45498;-69
2022/02/14 11:16:35;;;;;;;;;3.50;2.25;;;;;11.55;59.53;99655.28;4923256;28;46293;-69
2022/02/14 11:19:01;;;;;;;;;3.75;2.00;;;;;11.64;59.33;99653.88;4923485;28;45204;-67
2022/02/14 11:21:27;;;;;;;;;8.25;7.75;;;;;11.62;58.25;99646.06;4923891;28;45287;-66
2022/02/14 11:23:58;;;;;;;;;3.50;3.00;;;;;11.77;58.08;99641.69;4923381;28;45391;-67
2022/02/14 11:26:42;;;;;;;;;3.75;2.25;;;;;12.02;57.86;99642.84;4922111;28;46066;-67
2022/02/14 11:29:37;;;;;;;;;8.00;4.75;;;;;12.20;57.04;99635.59;4922453;28;45441;-68
2022/02/14 11:32:16;;;;;;;;;3.50;2.50;;;;;12.21;57.18;99620.63;4924340;28;45368;-69
2022/02/14 11:34:57;;;;;;;;;4.00;3.25;;;;;12.35;57.10;99641.69;4925092;28;45502;-68
2022/02/14 11:37:24;;;;;;;;;2.25;2.00;;;;;12.40;56.40;99618.50;4924970;28;47376;-67
2022/02/14 11:39:50;;;;;;;;;3.00;1.00;;;;;12.55;56.42;99619.34;4921385;28;45363;-67